createdAt,value
2022-11-26T00:00:32.524Z,6.13
2022-11-26T00:01:33.963Z,6.00
2022-11-26T00:02:35.776Z,6.50
2022-11-26T00:03:37.572Z,6.17
2022-11-26T00:04:39.361Z,6.27
2022-11-26T00:05:44.388Z,6.60
2022-11-26T00:06:46.075Z,6.47
2022-11-26T00:07:54.713Z,6.13
2022-11-26T00:08:56.325Z,5.67
2022-11-26T00:09:59.471Z,6.40
2022-11-26T00:11:01.967Z,6.30
2022-11-26T00:12:16.511Z,6.10
2022-11-26T00:13:21.442Z,6.90
2022-11-26T00:14:22.896Z,6.10
2022-11-26T00:15:30.337Z,6.37
2022-11-26T00:16:32.565Z,6.07
2022-11-26T00:17:34.043Z,6.57
2022-11-26T00:18:35.551Z,6.47
2022-11-26T00:19:37.003Z,5.83
2022-11-26T00:20:38.921Z,6.47
2022-11-26T00:21:42.217Z,6.07
2022-11-26T00:22:48.526Z,6.57
2022-11-26T00:23:50.436Z,6.90
2022-11-26T00:24:52.893Z,6.90
2022-11-26T00:26:01.337Z,6.47
2022-11-26T00:27:02.787Z,7.00
2022-11-26T00:28:16.789Z,6.87
2022-11-26T00:29:18.416Z,6.47
2022-11-26T00:30:27.906Z,6.20
2022-11-26T00:31:30.062Z,6.40
2022-11-26T00:32:31.841Z,6.63
2022-11-26T00:33:33.635Z,6.40
2022-11-26T00:34:35.338Z,6.77
2022-11-26T00:35:37.157Z,7.70
2022-11-26T00:36:38.906Z,6.87
2022-11-26T00:37:46.096Z,6.73
2022-11-26T00:38:53.393Z,6.77
2022-11-26T00:39:57.116Z,6.87
2022-11-26T00:40:58.985Z,7.33
2022-11-26T00:42:00.697Z,7.10
2022-11-26T00:43:02.275Z,7.60
2022-11-26T00:44:04.328Z,7.70
2022-11-26T00:45:19.462Z,7.57
2022-11-26T00:46:22.267Z,7.60
2022-11-26T00:47:24.109Z,7.33
2022-11-26T00:48:25.533Z,7.27
2022-11-26T00:49:29.009Z,7.07
2022-11-26T00:50:36.669Z,6.93
2022-11-26T00:51:38.301Z,7.17
2022-11-26T00:52:40.052Z,6.80
2022-11-26T00:53:42.525Z,6.60
2022-11-26T00:54:44.282Z,6.63
2022-11-26T00:55:48.173Z,7.13
2022-11-26T00:56:50.684Z,6.50
2022-11-26T00:57:52.178Z,7.77
2022-11-26T00:58:53.831Z,6.53
2022-11-26T00:59:55.237Z,6.50
2022-11-26T01:00:59.375Z,7.27
2022-11-26T01:02:00.943Z,7.03
2022-11-26T01:03:02.965Z,6.47
2022-11-26T01:04:04.578Z,6.13
2022-11-26T01:05:08.588Z,7.17
2022-11-26T01:06:22.829Z,7.17
2022-11-26T01:07:24.418Z,6.83
2022-11-26T01:08:36.365Z,7.13
2022-11-26T01:09:39.085Z,7.60
2022-11-26T01:10:40.695Z,7.20
2022-11-26T01:11:42.323Z,7.07
2022-11-26T01:12:44.147Z,7.90
2022-11-26T01:13:47.049Z,7.43
2022-11-26T01:14:48.811Z,7.90
2022-11-26T01:15:50.317Z,7.50
2022-11-26T01:16:54.977Z,7.40
2022-11-26T01:17:56.402Z,7.50
2022-11-26T01:19:00.433Z,7.83
2022-11-26T01:20:02.091Z,7.67
2022-11-26T01:21:03.609Z,7.43
2022-11-26T01:22:05.224Z,7.47
2022-11-26T01:23:09.822Z,7.80
2022-11-26T01:24:11.314Z,8.70
2022-11-26T01:25:12.721Z,10.10
2022-11-26T01:26:19.516Z,8.30
2022-11-26T01:27:21.420Z,7.67
2022-11-26T01:28:22.889Z,7.70
2022-11-26T01:29:24.306Z,7.93
2022-11-26T01:30:29.996Z,8.17
2022-11-26T01:31:31.715Z,7.33
2022-11-26T01:32:33.177Z,7.43
2022-11-26T01:33:34.742Z,8.40
2022-11-26T01:34:36.462Z,8.40
2022-11-26T01:35:38.455Z,7.80
2022-11-26T01:36:41.295Z,8.30
2022-11-26T01:37:43.451Z,7.87
2022-11-26T01:38:45.130Z,8.07
2022-11-26T01:39:46.643Z,6.93
2022-11-26T01:41:02.543Z,7.87
2022-11-26T01:42:25.249Z,8.03
2022-11-26T01:43:39.830Z,7.07
2022-11-26T01:44:41.702Z,7.47
2022-11-26T01:45:43.610Z,7.20
2022-11-26T01:46:45.942Z,7.13
2022-11-26T01:47:50.489Z,7.30
2022-11-26T01:48:53.129Z,7.13
2022-11-26T01:50:29.511Z,7.47
2022-11-26T01:51:31.040Z,7.53
2022-11-26T01:52:32.781Z,7.23
2022-11-26T01:53:41.138Z,6.97
2022-11-26T01:54:44.749Z,7.90
2022-11-26T01:55:50.274Z,7.27
2022-11-26T01:56:54.916Z,7.43
2022-11-26T01:57:56.349Z,7.47
2022-11-26T01:59:17.564Z,6.70
2022-11-26T02:00:19.156Z,7.33
2022-11-26T02:01:21.261Z,6.80
2022-11-26T02:02:25.089Z,7.33
2022-11-26T02:03:28.849Z,7.83
2022-11-26T02:04:41.067Z,7.17
2022-11-26T02:05:57.094Z,7.50
2022-11-26T02:06:59.273Z,6.90
2022-11-26T02:08:02.240Z,7.60
2022-11-26T02:09:06.971Z,7.77
2022-11-26T02:10:09.980Z,8.70
2022-11-26T02:11:20.719Z,7.57
2022-11-26T02:12:22.555Z,7.63
2022-11-26T02:13:25.082Z,7.43
2022-11-26T02:14:31.796Z,8.20
2022-11-26T02:15:46.499Z,8.20
2022-11-26T02:17:06.261Z,7.30
2022-11-26T02:18:09.620Z,7.53
2022-11-26T02:19:20.351Z,7.80
2022-11-26T02:20:31.567Z,7.23
2022-11-26T02:21:36.222Z,7.63
2022-11-26T02:22:49.893Z,7.33
2022-11-26T02:24:08.679Z,7.90
2022-11-26T02:25:25.335Z,7.40
2022-11-26T02:27:00.399Z,6.93
2022-11-26T02:28:25.298Z,7.03
2022-11-26T02:30:04.710Z,7.27
2022-11-26T02:31:16.195Z,7.00
2022-11-26T02:32:23.252Z,7.03
2022-11-26T02:33:34.825Z,7.50
2022-11-26T02:34:48.421Z,7.30
2022-11-26T02:36:14.370Z,7.60
2022-11-26T02:37:31.479Z,6.90
2022-11-26T02:38:37.529Z,7.40
2022-11-26T02:39:39.133Z,7.30
2022-11-26T02:40:40.619Z,7.63
2022-11-26T02:41:51.830Z,7.47
2022-11-26T02:42:53.865Z,7.60
2022-11-26T02:43:55.328Z,8.20
2022-11-26T02:45:05.341Z,7.50
2022-11-26T02:46:12.557Z,7.60
2022-11-26T02:47:17.542Z,7.40
2022-11-26T02:48:23.834Z,7.63
2022-11-26T02:49:26.353Z,8.00
2022-11-26T02:50:34.917Z,7.97
2022-11-26T02:51:37.357Z,7.87
2022-11-26T02:52:41.694Z,8.60
2022-11-26T02:53:45.215Z,8.60
2022-11-26T02:54:48.698Z,8.50
2022-11-26T02:55:56.959Z,8.60
2022-11-26T02:57:01.775Z,7.63
2022-11-26T02:58:03.710Z,8.03
2022-11-26T02:59:05.692Z,7.77
2022-11-26T03:00:07.914Z,7.77
2022-11-26T03:01:16.268Z,7.63
2022-11-26T03:02:35.698Z,7.60
2022-11-26T03:03:43.635Z,7.93
2022-11-26T03:04:51.310Z,7.57
2022-11-26T03:06:09.469Z,7.70
2022-11-26T03:07:14.685Z,7.37
2022-11-26T03:08:17.004Z,8.20
2022-11-26T03:09:22.224Z,7.00
2022-11-26T03:10:31.425Z,7.43
2022-11-26T03:11:33.213Z,7.50
2022-11-26T03:12:34.732Z,7.50
2022-11-26T03:13:36.444Z,9.00
2022-11-26T03:14:38.168Z,7.70
2022-11-26T03:15:39.994Z,7.40
2022-11-26T03:16:41.709Z,7.57
2022-11-26T03:17:43.477Z,8.10
2022-11-26T03:18:44.980Z,7.53
2022-11-26T03:19:47.240Z,7.73
2022-11-26T03:20:52.269Z,7.33
2022-11-26T03:21:54.006Z,7.77
2022-11-26T03:22:55.399Z,7.87
2022-11-26T03:23:56.842Z,7.47
2022-11-26T03:24:58.436Z,8.57
2022-11-26T03:26:01.033Z,7.93
2022-11-26T03:27:02.694Z,7.10
2022-11-26T03:28:04.544Z,7.70
2022-11-26T03:29:05.947Z,7.27
2022-11-26T03:30:08.103Z,7.37
2022-11-26T03:31:10.050Z,7.33
2022-11-26T03:32:12.170Z,7.97
2022-11-26T03:33:13.610Z,7.87
2022-11-26T03:34:15.474Z,7.90
2022-11-26T03:35:17.145Z,6.87
2022-11-26T03:36:18.622Z,7.30
2022-11-26T03:37:20.700Z,7.30
2022-11-26T03:38:22.152Z,7.47
2022-11-26T03:39:23.601Z,7.50
2022-11-26T03:40:25.613Z,7.23
2022-11-26T03:41:27.111Z,7.77
2022-11-26T03:42:28.923Z,6.97
2022-11-26T03:43:30.459Z,7.33
2022-11-26T03:44:32.193Z,7.33
2022-11-26T03:45:33.724Z,6.80
2022-11-26T03:46:35.237Z,6.80
2022-11-26T03:47:37.127Z,7.60
2022-11-26T03:48:38.505Z,7.10
2022-11-26T03:49:39.945Z,6.50
2022-11-26T03:50:41.399Z,7.07
2022-11-26T03:51:43.101Z,6.60
2022-11-26T03:52:44.565Z,6.40
2022-11-26T03:53:46.743Z,6.70
2022-11-26T03:54:48.354Z,6.30
2022-11-26T03:55:50.093Z,6.93
2022-11-26T03:56:51.565Z,6.70
2022-11-26T03:57:53.000Z,6.70
2022-11-26T03:58:54.454Z,7.37
2022-11-26T03:59:57.239Z,7.20
2022-11-26T04:00:58.699Z,7.53
2022-11-26T04:02:00.224Z,7.37
2022-11-26T04:03:02.003Z,7.17
2022-11-26T04:04:04.108Z,7.30
2022-11-26T04:05:06.007Z,6.93
2022-11-26T04:06:07.981Z,7.50
2022-11-26T04:07:09.530Z,7.10
2022-11-26T04:08:11.010Z,6.83
2022-11-26T04:09:12.766Z,7.10
2022-11-26T04:10:14.405Z,7.10
2022-11-26T04:11:16.140Z,8.57
2022-11-26T04:12:17.532Z,7.43
2022-11-26T04:13:18.972Z,8.10
2022-11-26T04:14:20.400Z,7.30
2022-11-26T04:15:22.093Z,7.80
2022-11-26T04:16:23.659Z,7.43
2022-11-26T04:17:25.138Z,7.70
2022-11-26T04:18:26.845Z,7.80
2022-11-26T04:19:28.301Z,7.90
2022-11-26T04:20:30.205Z,7.30
2022-11-26T04:21:31.698Z,7.13
2022-11-26T04:22:33.127Z,7.33
2022-11-26T04:23:35.356Z,6.93
2022-11-26T04:24:37.145Z,7.13
2022-11-26T04:25:39.070Z,7.50
2022-11-26T04:26:40.906Z,7.53
2022-11-26T04:27:42.708Z,7.47
2022-11-26T04:28:44.833Z,8.23
2022-11-26T04:29:46.253Z,7.17
2022-11-26T04:30:48.362Z,7.77
2022-11-26T04:31:49.845Z,7.77
2022-11-26T04:32:51.245Z,7.77
2022-11-26T04:33:52.890Z,6.97
2022-11-26T04:34:54.499Z,7.57
2022-11-26T04:35:56.665Z,7.03
2022-11-26T04:36:58.065Z,7.53
2022-11-26T04:38:00.023Z,7.20
2022-11-26T04:39:01.466Z,7.07
2022-11-26T04:40:03.238Z,7.07
2022-11-26T04:41:05.009Z,7.23
2022-11-26T04:42:06.526Z,8.30
2022-11-26T04:43:07.975Z,7.67
2022-11-26T04:44:09.691Z,7.20
2022-11-26T04:45:11.871Z,7.33
2022-11-26T04:46:13.335Z,6.90
2022-11-26T04:47:14.824Z,6.83
2022-11-26T04:48:16.738Z,6.93
2022-11-26T04:49:18.180Z,7.03
2022-11-26T04:50:19.854Z,7.00
2022-11-26T04:51:21.322Z,7.30
2022-11-26T04:52:23.183Z,7.50
2022-11-26T04:53:24.636Z,7.77
2022-11-26T04:54:26.139Z,7.90
2022-11-26T04:55:27.829Z,7.87
2022-11-26T04:56:29.243Z,7.00
2022-11-26T04:57:30.839Z,7.00
2022-11-26T04:58:32.372Z,7.40
2022-11-26T04:59:34.374Z,6.87
2022-11-26T05:00:35.865Z,7.00
2022-11-26T05:01:37.538Z,7.30
2022-11-26T05:02:39.248Z,6.90
2022-11-26T05:03:40.927Z,7.30
2022-11-26T05:04:42.409Z,8.00
2022-11-26T05:05:43.870Z,7.43
2022-11-26T05:06:45.997Z,7.73
2022-11-26T05:07:47.570Z,7.67
2022-11-26T05:08:49.158Z,7.30
2022-11-26T05:09:50.606Z,6.53
2022-11-26T05:10:55.713Z,7.10
2022-11-26T05:11:57.083Z,7.57
2022-11-26T05:12:58.923Z,7.13
2022-11-26T05:14:00.407Z,7.73
2022-11-26T05:15:02.870Z,8.07
2022-11-26T05:16:05.004Z,7.53
2022-11-26T05:17:06.724Z,8.00
2022-11-26T05:18:08.280Z,8.10
2022-11-26T05:19:09.694Z,8.23
2022-11-26T05:20:11.975Z,7.00
2022-11-26T05:21:13.786Z,7.30
2022-11-26T05:22:15.708Z,7.50
2022-11-26T05:23:17.235Z,7.23
2022-11-26T05:24:18.677Z,7.40
2022-11-26T05:25:20.151Z,7.40
2022-11-26T05:26:21.573Z,7.87
2022-11-26T05:27:23.019Z,7.73
2022-11-26T05:28:24.601Z,7.43
2022-11-26T05:29:26.362Z,7.43
2022-11-26T05:30:27.879Z,8.13
2022-11-26T05:31:30.179Z,7.63
2022-11-26T05:32:31.633Z,7.73
2022-11-26T05:33:33.430Z,8.10
2022-11-26T05:34:34.908Z,7.73
2022-11-26T05:35:38.159Z,7.87
2022-11-26T05:36:39.851Z,7.80
2022-11-26T05:37:41.354Z,7.87
2022-11-26T05:38:42.827Z,8.03
2022-11-26T05:39:44.271Z,7.30
2022-11-26T05:40:45.713Z,7.27
2022-11-26T05:41:47.145Z,7.77
2022-11-26T05:42:48.589Z,8.67
2022-11-26T05:43:50.144Z,8.00
2022-11-26T05:44:51.833Z,8.00
2022-11-26T05:45:53.289Z,7.70
2022-11-26T05:46:54.827Z,7.20
2022-11-26T05:47:56.224Z,7.67
2022-11-26T05:48:57.646Z,8.40
2022-11-26T05:49:59.239Z,8.70
2022-11-26T05:51:01.998Z,9.30
2022-11-26T05:52:03.760Z,8.23
2022-11-26T05:53:05.586Z,8.50
2022-11-26T05:54:07.598Z,8.90
2022-11-26T05:55:09.760Z,8.23
2022-11-26T05:56:11.269Z,8.53
2022-11-26T05:57:12.760Z,9.40
2022-11-26T05:58:14.170Z,8.37
2022-11-26T05:59:16.360Z,8.40
2022-11-26T06:00:18.528Z,8.83
2022-11-26T06:01:19.973Z,7.70
2022-11-26T06:02:21.830Z,8.00
2022-11-26T06:03:23.447Z,8.33
2022-11-26T06:04:25.220Z,8.80
2022-11-26T06:05:26.596Z,8.57
2022-11-26T06:06:28.051Z,8.30
2022-11-26T06:07:29.715Z,7.60
2022-11-26T06:08:31.270Z,8.07
2022-11-26T06:09:33.024Z,7.87
2022-11-26T06:10:34.469Z,8.13
2022-11-26T06:11:36.293Z,7.33
2022-11-26T06:12:37.875Z,8.00
2022-11-26T06:13:40.043Z,7.50
2022-11-26T06:14:43.415Z,7.00
2022-11-26T06:15:45.185Z,8.30
2022-11-26T06:16:47.316Z,7.37
2022-11-26T06:17:48.860Z,7.30
2022-11-26T06:18:50.240Z,7.40
2022-11-26T06:19:52.437Z,7.00
2022-11-26T06:20:54.531Z,7.03
2022-11-26T06:21:56.331Z,7.60
2022-11-26T06:22:57.745Z,7.23
2022-11-26T06:23:59.859Z,7.40
2022-11-26T06:25:01.491Z,7.13
2022-11-26T06:26:08.522Z,7.20
2022-11-26T06:27:10.116Z,6.73
2022-11-26T06:28:11.677Z,6.90
2022-11-26T06:29:15.274Z,7.97
2022-11-26T06:30:16.721Z,7.90
2022-11-26T06:31:18.331Z,7.03
2022-11-26T06:32:20.133Z,7.57
2022-11-26T06:33:21.594Z,7.20
2022-11-26T06:34:23.378Z,7.73
2022-11-26T06:35:24.823Z,6.80
2022-11-26T06:36:26.276Z,7.17
2022-11-26T06:37:27.690Z,7.27
2022-11-26T06:38:29.322Z,7.30
2022-11-26T06:39:30.714Z,7.57
2022-11-26T06:40:32.439Z,8.10
2022-11-26T06:41:33.868Z,8.00
2022-11-26T06:42:35.325Z,7.20
2022-11-26T06:43:37.125Z,7.30
2022-11-26T06:44:38.678Z,6.97
2022-11-26T06:45:40.232Z,7.80
2022-11-26T06:46:41.661Z,7.67
2022-11-26T06:47:43.345Z,7.13
2022-11-26T06:48:45.122Z,7.80
2022-11-26T06:49:46.582Z,6.83
2022-11-26T06:50:48.020Z,7.33
2022-11-26T06:51:49.726Z,7.17
2022-11-26T06:52:54.023Z,6.73
2022-11-26T06:53:55.475Z,7.67
2022-11-26T06:54:56.913Z,7.50
2022-11-26T06:56:02.978Z,6.80
2022-11-26T06:57:04.427Z,6.57
2022-11-26T06:58:05.913Z,7.03
2022-11-26T06:59:07.557Z,7.40
2022-11-26T07:00:09.868Z,6.80
2022-11-26T07:01:14.799Z,7.30
2022-11-26T07:02:16.342Z,6.80
2022-11-26T07:03:23.490Z,7.00
2022-11-26T07:04:25.729Z,6.63
2022-11-26T07:05:27.363Z,7.23
2022-11-26T07:06:31.296Z,7.03
2022-11-26T07:07:32.827Z,6.60
2022-11-26T07:08:34.323Z,7.07
2022-11-26T07:09:35.857Z,6.53
2022-11-26T07:10:38.193Z,6.47
2022-11-26T07:11:41.442Z,6.03
2022-11-26T07:12:42.863Z,6.47
2022-11-26T07:13:44.438Z,6.33
2022-11-26T07:14:45.837Z,6.50
2022-11-26T07:15:47.317Z,6.30
2022-11-26T07:16:49.296Z,6.47
2022-11-26T07:17:50.800Z,6.47
2022-11-26T07:18:59.230Z,6.57
2022-11-26T07:20:04.769Z,6.10
2022-11-26T07:21:08.583Z,6.43
2022-11-26T07:22:10.044Z,6.37
2022-11-26T07:23:11.589Z,6.33
2022-11-26T07:24:13.053Z,5.83
2022-11-26T07:25:14.914Z,6.33
2022-11-26T07:26:17.505Z,6.90
2022-11-26T07:27:19.189Z,6.73
2022-11-26T07:28:20.604Z,6.23
2022-11-26T07:29:22.079Z,5.90
2022-11-26T07:30:24.716Z,6.43
2022-11-26T07:31:26.163Z,6.67
2022-11-26T07:32:30.248Z,5.90
2022-11-26T07:33:32.063Z,6.30
2022-11-26T07:34:33.991Z,5.80
2022-11-26T07:35:37.250Z,6.33
2022-11-26T07:36:43.084Z,5.60
2022-11-26T07:37:44.721Z,6.10
2022-11-26T07:38:47.317Z,6.50
2022-11-26T07:39:49.522Z,6.13
2022-11-26T07:40:51.125Z,6.07
2022-11-26T07:41:52.546Z,6.20
2022-11-26T07:42:53.931Z,5.57
2022-11-26T07:43:59.078Z,6.33
2022-11-26T07:45:00.540Z,6.37
2022-11-26T07:46:03.832Z,6.57
2022-11-26T07:47:05.667Z,5.80
2022-11-26T07:48:08.225Z,6.17
2022-11-26T07:49:11.832Z,6.40
2022-11-26T07:50:13.439Z,6.07
2022-11-26T07:51:29.503Z,6.30
2022-11-26T07:52:30.951Z,6.03
2022-11-26T07:53:33.987Z,6.00
2022-11-26T07:54:35.937Z,6.10
2022-11-26T07:55:41.144Z,5.60
2022-11-26T07:56:42.727Z,6.10
2022-11-26T07:57:44.415Z,5.50
2022-11-26T07:58:46.718Z,5.93
2022-11-26T07:59:48.199Z,5.97
2022-11-26T08:00:54.454Z,5.57
2022-11-26T08:01:56.776Z,5.70
2022-11-26T08:02:59.270Z,6.53
2022-11-26T08:04:04.074Z,7.23
2022-11-26T08:05:06.049Z,7.10
2022-11-26T08:06:10.218Z,8.10
2022-11-26T08:07:16.064Z,8.20
2022-11-26T08:08:21.475Z,8.13
2022-11-26T08:09:23.056Z,6.90
2022-11-26T08:10:24.456Z,7.87
2022-11-26T08:11:28.273Z,7.47
2022-11-26T08:12:29.782Z,7.83
2022-11-26T08:13:31.412Z,7.17
2022-11-26T08:14:33.600Z,8.00
2022-11-26T08:15:37.056Z,8.87
2022-11-26T08:16:39.530Z,7.00
2022-11-26T08:17:40.939Z,7.00
2022-11-26T08:18:43.223Z,7.83
2022-11-26T08:19:44.691Z,7.60
2022-11-26T08:20:53.791Z,6.27
2022-11-26T08:21:55.221Z,6.37
2022-11-26T08:22:56.631Z,6.80
2022-11-26T08:23:58.463Z,6.60
2022-11-26T08:24:59.892Z,6.70
2022-11-26T08:27:33.804Z,7.03
2022-11-26T08:28:35.620Z,6.70
2022-11-26T08:29:37.417Z,6.60
2022-11-26T08:30:39.340Z,6.57
2022-11-26T08:31:45.615Z,6.90
2022-11-26T08:32:47.388Z,7.33
2022-11-26T08:33:48.739Z,6.50
2022-11-26T08:34:50.173Z,6.77
2022-11-26T08:36:06.836Z,7.03
2022-11-26T08:37:09.658Z,6.40
2022-11-26T08:38:11.055Z,7.53
2022-11-26T08:39:14.327Z,6.80
2022-11-26T08:40:15.866Z,7.27
2022-11-26T08:41:17.708Z,6.87
2022-11-26T08:42:19.351Z,7.30
2022-11-26T08:43:34.648Z,7.20
2022-11-26T08:44:44.926Z,7.30
2022-11-26T08:45:56.466Z,7.23
2022-11-26T08:46:57.904Z,7.50
2022-11-26T08:47:59.651Z,6.73
2022-11-26T08:49:01.123Z,7.20
2022-11-26T08:50:02.596Z,7.00
2022-11-26T08:51:07.964Z,7.23
2022-11-26T08:52:10.004Z,6.90
2022-11-26T08:53:11.383Z,6.50
2022-11-26T08:54:13.322Z,7.40
2022-11-26T08:55:14.821Z,7.37
2022-11-26T08:56:16.248Z,6.97
2022-11-26T08:57:17.906Z,6.53
2022-11-26T08:58:19.408Z,6.83
2022-11-26T08:59:23.177Z,6.87
2022-11-26T09:00:25.028Z,7.17
2022-11-26T09:01:29.918Z,6.67
2022-11-26T09:02:33.107Z,6.40
2022-11-26T09:03:34.678Z,6.43
2022-11-26T09:04:36.752Z,6.30
2022-11-26T09:05:38.520Z,5.83
2022-11-26T09:06:41.228Z,5.90
2022-11-26T09:07:47.759Z,6.40
2022-11-26T09:09:09.490Z,5.87
2022-11-26T09:10:11.508Z,6.43
2022-11-26T09:11:12.959Z,6.57
2022-11-26T09:12:14.373Z,6.87
2022-11-26T09:13:20.812Z,6.00
2022-11-26T09:14:27.258Z,6.97
2022-11-26T09:15:28.716Z,8.30
2022-11-26T09:16:30.323Z,8.70
2022-11-26T09:17:31.828Z,8.17
2022-11-26T09:18:33.273Z,7.63
2022-11-26T09:19:34.785Z,8.60
2022-11-26T09:20:36.260Z,7.13
2022-11-26T09:21:37.799Z,7.50
2022-11-26T09:22:39.527Z,7.50
2022-11-26T09:23:40.934Z,6.77
2022-11-26T09:24:42.611Z,7.23
2022-11-26T09:25:44.208Z,7.37
2022-11-26T09:26:45.909Z,7.90
2022-11-26T09:27:47.666Z,6.73
2022-11-26T09:28:49.562Z,7.03
2022-11-26T09:29:51.390Z,6.80
2022-11-26T09:30:57.833Z,6.30
2022-11-26T09:33:20.979Z,6.00
2022-11-26T09:34:22.953Z,6.17
2022-11-26T09:35:25.253Z,6.10
2022-11-26T09:36:27.629Z,7.10
2022-11-26T09:37:31.487Z,6.47
2022-11-26T09:38:33.683Z,5.87
2022-11-26T09:39:35.297Z,5.07
2022-11-26T09:40:58.430Z,5.83
2022-11-26T09:42:06.203Z,6.30
2022-11-26T09:43:23.322Z,6.17
2022-11-26T09:44:37.230Z,5.90
2022-11-26T09:45:47.911Z,7.83
2022-11-26T09:47:12.851Z,5.90
2022-11-26T09:48:21.559Z,5.80
2022-11-26T09:49:25.078Z,6.00
2022-11-26T09:50:32.661Z,6.27
2022-11-26T09:51:34.994Z,5.70
2022-11-26T09:52:50.860Z,6.87
2022-11-26T09:53:53.130Z,5.70
2022-11-26T09:55:16.895Z,6.20
2022-11-26T09:56:26.161Z,6.50
2022-11-26T09:57:41.074Z,5.90
2022-11-26T09:58:50.385Z,5.13
2022-11-26T09:59:53.883Z,5.47
2022-11-26T10:01:00.575Z,7.40
2022-11-26T10:02:02.205Z,5.30
2022-11-26T10:03:15.866Z,5.77
2022-11-26T10:04:27.092Z,5.13
2022-11-26T10:05:39.507Z,8.33
2022-11-26T10:07:05.759Z,5.67
2022-11-26T10:08:33.520Z,4.97
2022-11-26T10:09:37.933Z,5.40
2022-11-26T10:10:57.045Z,5.60
2022-11-26T10:12:04.357Z,5.00
2022-11-26T10:13:27.161Z,5.20
2022-11-26T10:14:47.605Z,5.57
2022-11-26T10:15:58.120Z,5.87
2022-11-26T10:17:05.978Z,5.00
2022-11-26T10:18:32.125Z,5.93
2022-11-26T10:19:55.192Z,5.30
2022-11-26T10:21:02.914Z,5.23
2022-11-26T10:22:11.269Z,5.10
2022-11-26T10:23:12.629Z,5.00
2022-11-26T10:24:42.216Z,5.47
2022-11-26T10:25:59.635Z,6.30
2022-11-26T10:27:09.939Z,5.53
2022-11-26T10:28:21.062Z,4.93
2022-11-26T10:29:22.575Z,6.57
2022-11-26T10:30:29.773Z,4.80
2022-11-26T10:31:33.627Z,5.70
2022-11-26T10:32:45.371Z,4.57
2022-11-26T10:33:57.497Z,5.20
2022-11-26T10:34:59.099Z,4.80
2022-11-26T10:36:00.993Z,4.47
2022-11-26T10:37:02.569Z,5.10
2022-11-26T10:38:04.333Z,4.60
2022-11-26T10:39:07.600Z,4.13
2022-11-26T10:40:26.380Z,4.50
2022-11-26T10:41:33.385Z,4.80
2022-11-26T10:42:43.706Z,4.40
2022-11-26T10:43:45.205Z,4.33
2022-11-26T10:44:48.958Z,4.30
2022-11-26T10:45:53.240Z,4.07
2022-11-26T10:46:55.508Z,4.40
2022-11-26T10:48:25.715Z,5.13
2022-11-26T10:49:29.700Z,4.00
2022-11-26T10:50:50.561Z,4.23
2022-11-26T10:51:58.901Z,5.57
2022-11-26T10:53:05.464Z,5.57
2022-11-26T10:54:18.982Z,4.80
2022-11-26T10:55:40.810Z,3.80
2022-11-26T10:56:47.381Z,4.40
2022-11-26T10:57:56.339Z,3.70
2022-11-26T10:59:03.908Z,5.03
2022-11-26T11:00:06.201Z,4.03
2022-11-26T11:01:09.036Z,4.10
2022-11-26T11:02:28.063Z,4.07
2022-11-26T11:04:06.895Z,4.37
2022-11-26T11:05:08.094Z,4.50
2022-11-26T11:06:20.390Z,4.47
2022-11-26T11:07:29.722Z,4.50
2022-11-26T11:08:32.896Z,4.63
2022-11-26T11:09:37.541Z,4.80
2022-11-26T11:10:56.826Z,4.40
2022-11-26T11:12:13.657Z,4.00
2022-11-26T11:13:15.361Z,5.33
2022-11-26T11:14:29.055Z,5.03
2022-11-26T11:15:33.968Z,5.70
2022-11-26T11:16:43.288Z,4.47
2022-11-26T11:17:47.005Z,7.57
2022-11-26T11:19:00.384Z,6.40
2022-11-26T11:20:17.568Z,4.87
2022-11-26T11:21:21.183Z,6.70
2022-11-26T11:22:22.806Z,5.20
2022-11-26T11:23:45.857Z,4.87
2022-11-26T11:24:49.065Z,5.43
2022-11-26T11:26:04.658Z,6.03
2022-11-26T11:27:06.126Z,5.20
2022-11-26T11:28:13.327Z,5.27
2022-11-26T11:29:29.608Z,4.90
2022-11-26T11:30:34.593Z,4.33
2022-11-26T11:31:45.997Z,4.60
2022-11-26T11:32:47.551Z,5.63
2022-11-26T11:33:51.312Z,4.47
2022-11-26T11:34:52.794Z,5.07
2022-11-26T11:36:02.053Z,4.90
2022-11-26T11:37:05.583Z,6.10
2022-11-26T11:38:22.981Z,4.43
2022-11-26T11:39:33.876Z,5.20
2022-11-26T11:40:42.287Z,4.77
2022-11-26T11:41:47.607Z,5.27
2022-11-26T11:42:59.186Z,5.50
2022-11-26T11:44:12.575Z,4.80
2022-11-26T11:45:31.993Z,6.13
2022-11-26T11:46:52.252Z,5.00
2022-11-26T11:47:58.145Z,4.77
2022-11-26T11:49:22.836Z,5.03
2022-11-26T11:50:48.916Z,4.90
2022-11-26T11:52:03.785Z,5.40
2022-11-26T11:53:39.647Z,4.43
2022-11-26T11:55:20.818Z,4.73
2022-11-26T11:56:39.322Z,4.70
2022-11-26T11:57:44.351Z,6.00
2022-11-26T11:59:14.805Z,4.87
2022-11-26T12:00:31.969Z,5.20
2022-11-26T12:01:55.985Z,5.63
2022-11-26T12:03:22.643Z,5.93
2022-11-26T12:05:00.222Z,5.40
2022-11-26T12:06:16.023Z,6.00
2022-11-26T12:07:32.075Z,4.50
2022-11-26T12:08:47.092Z,6.13
2022-11-26T12:10:02.226Z,4.97
2022-11-26T12:11:39.425Z,7.77
2022-11-26T12:12:57.075Z,5.80
2022-11-26T12:14:07.519Z,4.50
2022-11-26T12:15:21.505Z,5.63
2022-11-26T12:16:26.099Z,5.00
2022-11-26T12:17:35.819Z,6.20
2022-11-26T12:18:42.258Z,6.93
2022-11-26T12:19:50.477Z,5.70
2022-11-26T12:21:00.110Z,5.17
2022-11-26T12:22:05.009Z,4.70
2022-11-26T12:23:24.926Z,5.40
2022-11-26T12:24:43.372Z,4.70
2022-11-26T12:25:48.334Z,4.17
2022-11-26T12:26:56.948Z,5.00
2022-11-26T12:28:16.024Z,5.17
2022-11-26T12:29:41.962Z,5.00
2022-11-26T12:30:52.564Z,4.53
2022-11-26T12:31:59.494Z,5.30
2022-11-26T12:33:25.804Z,4.30
2022-11-26T12:34:33.001Z,4.43
2022-11-26T12:35:43.121Z,4.13
2022-11-26T12:36:59.538Z,4.20
2022-11-26T12:38:21.866Z,3.93
2022-11-26T12:39:50.500Z,5.13
2022-11-26T12:41:11.220Z,4.83
2022-11-26T12:42:47.186Z,4.23
2022-11-26T12:44:24.963Z,4.30
2022-11-26T12:45:41.567Z,4.00
2022-11-26T12:46:52.402Z,4.60
2022-11-26T12:48:15.156Z,4.27
2022-11-26T12:49:51.879Z,4.70
2022-11-26T12:50:58.615Z,4.80
2022-11-26T12:52:21.930Z,4.13
2022-11-26T12:53:55.633Z,4.50
2022-11-26T12:55:22.160Z,4.40
2022-11-26T12:56:31.258Z,4.50
2022-11-26T12:57:44.188Z,4.40
2022-11-26T12:59:11.872Z,6.90
2022-11-26T13:00:39.506Z,4.60
2022-11-26T13:01:40.936Z,4.50
2022-11-26T13:02:46.202Z,5.40
2022-11-26T13:03:47.757Z,4.23
2022-11-26T13:04:50.912Z,5.40
2022-11-26T13:06:03.655Z,7.90
2022-11-26T13:08:07.466Z,5.33
2022-11-26T13:09:30.909Z,5.43
2022-11-26T13:10:58.345Z,4.63
2022-11-26T13:12:28.739Z,7.00
2022-11-26T13:13:55.139Z,4.63
2022-11-26T13:15:14.350Z,4.80
2022-11-26T13:17:01.329Z,6.40
2022-11-26T13:18:11.502Z,4.50
2022-11-26T13:19:27.711Z,5.30
2022-11-26T13:20:35.321Z,5.27
2022-11-26T13:22:14.146Z,4.97
2022-11-26T13:23:27.245Z,4.80
2022-11-26T13:24:50.381Z,4.70
2022-11-26T13:25:54.503Z,4.80
2022-11-26T13:27:26.536Z,5.40
2022-11-26T13:28:46.970Z,4.67
2022-11-26T13:30:14.579Z,4.57
2022-11-26T13:31:50.384Z,5.03
2022-11-26T13:33:00.823Z,4.80
2022-11-26T13:34:43.561Z,5.30
2022-11-26T13:36:03.750Z,5.67
2022-11-26T13:37:36.316Z,4.50
2022-11-26T13:39:03.345Z,4.67
2022-11-26T13:40:10.868Z,4.40
2022-11-26T13:41:42.179Z,4.40
2022-11-26T13:42:52.480Z,5.47
2022-11-26T13:44:27.992Z,7.63
2022-11-26T13:45:47.346Z,4.40
2022-11-26T13:46:48.815Z,4.90
2022-11-26T13:48:14.645Z,4.87
2022-11-26T13:49:25.134Z,5.30
2022-11-26T13:50:40.401Z,5.03
2022-11-26T13:52:05.007Z,4.90
2022-11-26T13:53:16.826Z,4.63
2022-11-26T13:54:30.394Z,5.53
2022-11-26T13:56:02.164Z,5.40
2022-11-26T13:57:28.304Z,4.90
2022-11-26T13:58:47.598Z,6.27
2022-11-26T13:59:52.705Z,4.57
2022-11-26T14:00:54.327Z,4.73
2022-11-26T14:01:56.492Z,4.87
2022-11-26T14:02:59.993Z,5.33
2022-11-26T14:04:03.597Z,5.53
2022-11-26T14:05:08.912Z,4.10
2022-11-26T14:06:10.492Z,4.43
2022-11-26T14:07:11.923Z,5.03
2022-11-26T14:08:43.943Z,4.73
2022-11-26T14:09:48.363Z,5.20
2022-11-26T14:10:49.800Z,4.40
2022-11-26T14:11:54.491Z,4.73
2022-11-26T14:13:05.585Z,5.40
2022-11-26T14:14:25.397Z,5.27
2022-11-26T14:15:41.910Z,4.67
2022-11-26T14:17:15.693Z,5.20
2022-11-26T14:18:18.556Z,6.10
2022-11-26T14:19:20.016Z,5.40
2022-11-26T14:20:21.469Z,4.77
2022-11-26T14:21:24.085Z,4.40
2022-11-26T14:22:36.670Z,4.80
2022-11-26T14:23:41.473Z,5.50
2022-11-26T14:24:49.153Z,4.90
2022-11-26T14:25:50.819Z,5.83
2022-11-26T14:26:53.785Z,5.70
2022-11-26T14:27:55.853Z,5.10
2022-11-26T14:29:21.892Z,4.57
2022-11-26T14:30:28.163Z,5.13
2022-11-26T14:31:31.143Z,5.37
2022-11-26T14:32:55.640Z,5.30
2022-11-26T14:34:02.890Z,5.13
2022-11-26T14:35:33.951Z,6.63
2022-11-26T14:36:35.984Z,4.73
2022-11-26T14:37:37.545Z,5.53
2022-11-26T14:38:38.967Z,4.90
2022-11-26T14:39:40.813Z,4.60
2022-11-26T14:40:42.241Z,4.67
2022-11-26T14:41:43.605Z,5.37
2022-11-26T14:42:45.146Z,5.30
2022-11-26T14:43:46.589Z,5.20
2022-11-26T14:45:20.032Z,5.33
2022-11-26T14:46:21.847Z,5.53
2022-11-26T14:47:24.099Z,5.83
2022-11-26T14:48:27.856Z,5.30
2022-11-26T14:49:50.344Z,4.83
2022-11-26T14:50:53.119Z,5.70